Time;durP1;ratioP1;P1;durP2;ratioP2;P2;SDS_P1;SDS_P2;PMS_P1;PMS_P2;Temp;Humidity;BMP_temperature;BMP_pressure;BME280_temperature;BME280_humidity;BME280_pressure;Samples;Min_cycle;Max_cycle;Signal;HPM_P1;HPM_P2
2022/06/15 00:00:22;;;;;;;;;5.00;4.00;;;;;;;;4974088;28;46362;-66
2022/06/15 00:02:47;;;;;;;;;4.50;4.50;;;;;;;;5014423;28;45830;-67
2022/06/15 00:05:13;;;;;;;;;4.00;4.00;;;;;;;;4977934;28;45912;-67
2022/06/15 00:07:38;;;;;;;;;5.00;4.00;;;;;;;;4983963;28;45784;-66
2022/06/15 00:10:03;;;;;;;;;6.00;6.00;;;;;;;;4985545;28;45851;-66
2022/06/15 00:12:28;;;;;;;;;4.00;4.00;;;;;;;;4978591;28;45462;-66
2022/06/15 00:14:55;;;;;;;;;4.00;4.00;;;;;;;;5019304;28;45475;-67
2022/06/15 00:17:20;;;;;;;;;4.25;4.25;;;;;;;;4981084;28;47556;-67
2022/06/15 00:19:46;;;;;;;;;5.75;4.75;;;;;;;;4983782;28;45470;-67
2022/06/15 00:22:11;;;;;;;;;7.00;5.00;;;;;;;;4983883;28;46058;-66
2022/06/15 00:24:37;;;;;;;;;3.00;3.00;;;;;;;;5010716;28;45771;-66
2022/06/15 00:27:03;;;;;;;;;7.00;5.00;;;;;;;;4986556;28;45873;-65
2022/06/15 00:29:30;;;;;;;;;5.00;4.00;;;;;;;;4981038;28;45681;-67
2022/06/15 00:31:55;;;;;;;;;3.75;3.75;;;;;;;;4983838;28;45470;-66
2022/06/15 00:34:20;;;;;;;;;2.25;2.25;;;;;;;;4989447;28;45564;-67
2022/06/15 00:36:45;;;;;;;;;3.50;3.50;;;;;;;;5006574;28;48296;-67
2022/06/15 00:39:10;;;;;;;;;5.00;4.00;;;;;;;;4982800;28;45819;-65
2022/06/15 00:41:37;;;;;;;;;4.25;3.00;;;;;;;;4973868;28;45878;-66
2022/06/15 00:44:22;;;;;;;;;4.00;4.00;;;;;;;;4970906;28;45976;-67
2022/06/15 00:46:59;;;;;;;;;5.00;5.00;;;;;;;;4973971;28;45644;-66
2022/06/15 00:49:36;;;;;;;;;3.75;2.00;;;;;;;;4997520;28;46318;-65
2022/06/15 00:52:09;;;;;;;;;4.00;4.00;;;;;;;;4985967;28;45428;-66
2022/06/15 00:54:35;;;;;;;;;3.50;3.50;;;;;;;;4970251;28;45618;-65
2022/06/15 00:57:01;;;;;;;;;4.00;4.00;;;;;;;;4981781;28;45679;-65
2022/06/15 00:59:46;;;;;;;;;5.25;5.25;;;;;;;;4973628;28;46156;-66
2022/06/15 01:02:11;;;;;;;;;5.75;4.25;;;;;;;;4983527;28;45593;-66
2022/06/15 01:04:40;;;;;;;;;4.75;4.75;;;;;;;;4966082;28;45936;-67
2022/06/15 01:07:11;;;;;;;;;4.00;4.00;;;;;;;;4970031;28;45442;-66
2022/06/15 01:09:42;;;;;;;;;4.00;4.00;;;;;;;;4989442;28;45689;-66
2022/06/15 01:12:13;;;;;;;;;3.75;3.75;;;;;;;;4979489;28;45599;-66
2022/06/15 01:14:53;;;;;;;;;4.50;4.50;;;;;;;;4971014;28;45551;-66
2022/06/15 01:17:33;;;;;;;;;4.25;4.25;;;;;;;;4977925;28;46513;-67
2022/06/15 01:20:04;;;;;;;;;3.25;3.25;;;;;;;;4972053;28;45464;-66
2022/06/15 01:22:29;;;;;;;;;5.00;5.00;;;;;;;;4978919;28;45874;-65
2022/06/15 01:25:04;;;;;;;;;3.50;3.50;;;;;;;;4968388;28;45872;-66
2022/06/15 01:27:32;;;;;;;;;5.00;5.00;;;;;;;;4965877;28;46429;-66
2022/06/15 01:29:57;;;;;;;;;4.50;4.50;;;;;;;;4968824;28;45485;-66
2022/06/15 01:32:38;;;;;;;;;5.00;5.00;;;;;;;;4971128;28;45643;-67
2022/06/15 01:35:22;;;;;;;;;5.75;5.75;;;;;;;;4979428;28;45520;-67
2022/06/15 01:37:47;;;;;;;;;5.50;4.00;;;;;;;;4972009;28;47569;-66
2022/06/15 01:40:15;;;;;;;;;4.75;4.75;;;;;;;;4978791;28;46213;-68
2022/06/15 01:42:47;;;;;;;;;3.25;3.25;;;;;;;;4965262;28;45672;-67
2022/06/15 01:45:15;;;;;;;;;4.25;4.25;;;;;;;;4968933;28;45407;-66
2022/06/15 01:47:42;;;;;;;;;3.25;2.25;;;;;;;;4974327;28;47235;-66
2022/06/15 01:50:11;;;;;;;;;3.50;3.00;;;;;;;;4984403;28;45989;-66
2022/06/15 01:52:40;;;;;;;;;5.00;3.75;;;;;;;;4972664;28;45555;-66
2022/06/15 01:55:13;;;;;;;;;5.50;4.75;;;;;;;;4972255;28;47320;-66
2022/06/15 01:57:39;;;;;;;;;6.50;5.00;;;;;;;;4981338;28;47700;-67
2022/06/15 02:00:08;;;;;;;;;5.75;4.50;;;;;;;;5002809;28;45945;-65
2022/06/15 02:02:36;;;;;;;;;5.00;5.00;;;;;;;;4994099;28;45526;-67
2022/06/15 02:05:20;;;;;;;;;3.75;3.75;;;;;;;;4971445;28;45593;-65
2022/06/15 02:07:54;;;;;;;;;5.00;4.25;;;;;;;;5006820;28;48513;-65
2022/06/15 02:10:20;;;;;;;;;4.75;4.75;;;;;;;;4976234;28;45621;-65
2022/06/15 02:13:04;;;;;;;;;4.00;4.00;;;;;;;;5008353;28;45544;-65
2022/06/15 02:15:29;;;;;;;;;3.00;3.00;;;;;;;;4961284;28;45552;-67
2022/06/15 02:17:57;;;;;;;;;4.00;4.00;;;;;;;;4973063;28;47396;-66
2022/06/15 02:20:28;;;;;;;;;4.25;4.25;;;;;;;;4977423;28;45395;-67
2022/06/15 02:22:56;;;;;;;;;4.50;4.50;;;;;;;;4966478;28;45763;-65
2022/06/15 02:25:24;;;;;;;;;3.00;3.00;;;;;;;;4970487;28;45388;-65
2022/06/15 02:27:50;;;;;;;;;6.00;5.00;;;;;;;;4972310;28;45648;-64
2022/06/15 02:30:18;;;;;;;;;4.75;4.75;;;;;;;;4971713;28;45451;-65
2022/06/15 02:32:46;;;;;;;;;5.00;4.50;;;;;;;;4968049;28;45688;-66
2022/06/15 02:35:11;;;;;;;;;3.00;3.00;;;;;;;;4982733;28;45795;-66
2022/06/15 02:37:36;;;;;;;;;7.00;5.50;;;;;;;;4959024;28;46288;-65
2022/06/15 02:40:02;;;;;;;;;3.25;3.25;;;;;;;;4977104;28;45646;-65
2022/06/15 02:42:29;;;;;;;;;6.00;6.00;;;;;;;;5004874;28;45775;-66
2022/06/15 02:44:56;;;;;;;;;5.25;5.00;;;;;;;;4978726;28;45720;-65
2022/06/15 02:47:24;;;;;;;;;7.25;7.25;;;;;;;;4984359;28;45597;-66
2022/06/15 02:49:51;;;;;;;;;6.75;6.00;;;;;;;;4967393;28;45891;-67
2022/06/15 02:52:17;;;;;;;;;5.50;5.50;;;;;;;;5007751;28;46000;-68
2022/06/15 02:54:47;;;;;;;;;5.25;5.25;;;;;;;;4973196;28;45931;-68
2022/06/15 02:57:12;;;;;;;;;4.00;4.00;;;;;;;;4972490;28;45947;-68
2022/06/15 02:59:37;;;;;;;;;4.25;4.25;;;;;;;;4972059;28;45483;-68
2022/06/15 03:02:03;;;;;;;;;5.25;5.00;;;;;;;;4982227;28;45402;-68
2022/06/15 03:04:29;;;;;;;;;5.50;5.00;;;;;;;;4984718;28;45491;-68
2022/06/15 03:06:54;;;;;;;;;5.50;3.00;;;;;;;;4989288;28;46878;-67
2022/06/15 03:09:19;;;;;;;;;2.25;2.25;;;;;;;;4977094;28;45438;-67
2022/06/15 03:11:45;;;;;;;;;5.50;5.50;;;;;;;;4974968;28;45750;-66
2022/06/15 03:14:13;;;;;;;;;5.25;5.25;;;;;;;;4974479;28;45812;-66
2022/06/15 03:16:42;;;;;;;;;5.00;5.00;;;;;;;;4969602;28;47164;-68
2022/06/15 03:19:08;;;;;;;;;4.50;4.50;;;;;;;;4971283;28;46034;-69
2022/06/15 03:21:34;;;;;;;;;6.00;5.50;;;;;;;;4970549;28;46033;-69
2022/06/15 03:23:59;;;;;;;;;9.25;7.00;;;;;;;;4985448;28;45608;-67
2022/06/15 03:26:24;;;;;;;;;5.00;5.00;;;;;;;;4970415;28;46717;-68
2022/06/15 03:28:49;;;;;;;;;5.00;5.00;;;;;;;;5001698;28;45665;-67
2022/06/15 03:31:14;;;;;;;;;6.25;4.00;;;;;;;;4970432;28;45497;-69
2022/06/15 03:33:40;;;;;;;;;7.25;5.75;;;;;;;;4970511;28;45564;-68
2022/06/15 03:36:05;;;;;;;;;5.50;5.50;;;;;;;;5001740;28;47192;-68
2022/06/15 03:38:31;;;;;;;;;5.00;5.00;;;;;;;;5001596;28;45637;-68
2022/06/15 03:40:56;;;;;;;;;5.50;5.50;;;;;;;;4971158;28;45501;-66
2022/06/15 03:43:21;;;;;;;;;5.75;5.75;;;;;;;;4969745;28;45616;-65
2022/06/15 03:45:47;;;;;;;;;8.50;6.25;;;;;;;;4971715;28;46598;-65
2022/06/15 03:48:12;;;;;;;;;7.50;6.00;;;;;;;;4969779;28;45478;-66
2022/06/15 03:50:38;;;;;;;;;4.75;4.75;;;;;;;;4969972;28;45684;-65
2022/06/15 03:53:04;;;;;;;;;7.25;7.25;;;;;;;;4971675;28;45858;-65
2022/06/15 03:55:30;;;;;;;;;5.00;4.50;;;;;;;;4971081;28;46625;-66
2022/06/15 03:57:56;;;;;;;;;6.25;4.50;;;;;;;;4971628;28;45470;-67
2022/06/15 04:00:22;;;;;;;;;9.50;6.50;;;;;;;;4971106;28;46053;-65
2022/06/15 04:02:47;;;;;;;;;6.75;5.75;;;;;;;;4970739;28;45559;-66
2022/06/15 04:05:17;;;;;;;;;6.00;6.00;;;;;;;;4971069;28;45914;-65
2022/06/15 04:10:26;;;;;;;;;9.50;7.00;;;;;;;;4969329;28;45489;-66
2022/06/15 04:12:51;;;;;;;;;8.50;6.00;;;;;;;;4971491;28;45355;-66
2022/06/15 04:15:16;;;;;;;;;9.50;7.00;;;;;;;;4969818;28;45830;-65
2022/06/15 04:17:44;;;;;;;;;5.25;5.25;;;;;;;;4970897;28;45735;-65
2022/06/15 04:22:54;;;;;;;;;6.75;6.75;;;;;;;;4970616;28;46297;-66
2022/06/15 04:25:19;;;;;;;;;7.50;6.00;;;;;;;;4970645;28;45918;-65
2022/06/15 04:27:44;;;;;;;;;7.75;5.50;;;;;;;;4970601;28;45418;-65
2022/06/15 04:30:11;;;;;;;;;6.00;5.00;;;;;;;;5002246;28;45418;-65
2022/06/15 04:32:36;;;;;;;;;8.50;6.50;;;;;;;;4970028;28;47028;-65
2022/06/15 04:35:02;;;;;;;;;6.00;6.00;;;;;;;;4971410;28;46119;-65
2022/06/15 04:37:27;;;;;;;;;5.25;5.25;;;;;;;;4971621;28;45795;-65
2022/06/15 04:39:52;;;;;;;;;8.00;7.25;;;;;;;;4971949;28;45418;-65
2022/06/15 04:42:17;;;;;;;;;10.75;5.00;;;;;;;;4971268;28;45847;-65
2022/06/15 04:44:42;;;;;;;;;6.75;6.50;;;;;;;;5002533;28;47324;-65
2022/06/15 04:47:08;;;;;;;;;8.25;6.00;;;;;;;;4969814;28;46014;-66
2022/06/15 04:49:33;;;;;;;;;5.75;5.75;;;;;;;;4971324;28;45394;-67
2022/06/15 04:51:59;;;;;;;;;6.75;5.00;;;;;;;;4971858;28;45431;-66
2022/06/15 04:54:24;;;;;;;;;5.00;5.00;;;;;;;;4970392;28;45663;-65
2022/06/15 04:56:49;;;;;;;;;10.00;6.50;;;;;;;;4969757;28;45872;-66
2022/06/15 04:59:15;;;;;;;;;7.75;5.50;;;;;;;;4971587;28;45589;-66
2022/06/15 05:01:41;;;;;;;;;6.00;6.00;;;;;;;;4971398;28;45688;-65
2022/06/15 05:04:06;;;;;;;;;5.50;5.50;;;;;;;;4971614;28;46197;-66
2022/06/15 05:06:33;;;;;;;;;8.50;6.25;;;;;;;;4970978;28;45383;-65
2022/06/15 05:08:58;;;;;;;;;5.50;5.50;;;;;;;;4971080;28;45431;-65
2022/06/15 05:11:26;;;;;;;;;8.50;6.50;;;;;;;;4969165;28;45539;-66
2022/06/15 05:13:51;;;;;;;;;7.50;6.50;;;;;;;;5002091;28;48497;-66
2022/06/15 05:16:17;;;;;;;;;4.75;4.75;;;;;;;;4970700;28;45929;-67
2022/06/15 05:18:42;;;;;;;;;7.00;7.00;;;;;;;;4971653;28;46015;-65
2022/06/15 05:21:07;;;;;;;;;6.00;6.00;;;;;;;;4970700;28;45532;-65
2022/06/15 05:23:32;;;;;;;;;5.75;5.25;;;;;;;;4970333;28;46113;-67
2022/06/15 05:25:58;;;;;;;;;6.00;6.00;;;;;;;;4971941;28;45697;-66
2022/06/15 05:28:23;;;;;;;;;11.00;7.50;;;;;;;;4973154;28;45462;-66
2022/06/15 05:30:48;;;;;;;;;6.50;6.50;;;;;;;;4989619;28;45610;-66
2022/06/15 05:33:13;;;;;;;;;9.50;8.25;;;;;;;;4972168;28;46144;-66
2022/06/15 05:35:39;;;;;;;;;8.75;8.75;;;;;;;;4974286;28;47409;-66
2022/06/15 05:38:04;;;;;;;;;10.00;8.25;;;;;;;;4974413;28;45521;-66
2022/06/15 05:40:29;;;;;;;;;8.50;7.00;;;;;;;;4972485;28;45398;-65
2022/06/15 05:42:54;;;;;;;;;7.50;7.25;;;;;;;;4974581;28;45344;-65
2022/06/15 05:45:20;;;;;;;;;6.00;6.00;;;;;;;;4974068;28;45515;-65
2022/06/15 05:47:45;;;;;;;;;6.25;6.25;;;;;;;;4974316;28;45501;-65
2022/06/15 05:50:12;;;;;;;;;10.75;7.75;;;;;;;;5006364;28;45486;-65
2022/06/15 05:52:37;;;;;;;;;6.00;6.00;;;;;;;;4974403;28;47088;-65
2022/06/15 05:55:02;;;;;;;;;6.75;6.75;;;;;;;;4974989;28;45372;-65
2022/06/15 05:57:27;;;;;;;;;6.75;6.75;;;;;;;;4974420;28;45568;-66
2022/06/15 05:59:54;;;;;;;;;9.25;7.00;;;;;;;;4973647;28;45582;-65
2022/06/15 06:02:21;;;;;;;;;7.25;7.25;;;;;;;;4973745;28;45940;-66
2022/06/15 06:04:46;;;;;;;;;5.75;5.75;;;;;;;;4972215;28;45633;-66
2022/06/15 06:07:12;;;;;;;;;7.00;7.00;;;;;;;;4974694;28;45492;-65
2022/06/15 06:09:37;;;;;;;;;7.00;6.00;;;;;;;;4972203;28;47908;-65
2022/06/15 06:12:02;;;;;;;;;6.00;6.00;;;;;;;;4973943;28;45636;-66
2022/06/15 06:14:28;;;;;;;;;5.50;5.50;;;;;;;;4973054;28;45473;-65
2022/06/15 06:16:53;;;;;;;;;6.00;6.00;;;;;;;;5004768;28;45537;-67
2022/06/15 06:19:18;;;;;;;;;7.00;7.00;;;;;;;;4973933;28;45548;-66
2022/06/15 06:21:43;;;;;;;;;10.25;7.00;;;;;;;;4973399;28;46706;-65
2022/06/15 06:24:09;;;;;;;;;11.50;9.50;;;;;;;;4971888;28;45423;-67
2022/06/15 06:26:35;;;;;;;;;9.25;8.75;;;;;;;;4973431;28;45453;-66
2022/06/15 06:29:00;;;;;;;;;10.50;9.75;;;;;;;;4973790;28;45506;-67
2022/06/15 06:31:26;;;;;;;;;10.75;9.25;;;;;;;;4973122;28;45782;-67
2022/06/15 06:33:52;;;;;;;;;9.25;8.50;;;;;;;;4972708;28;45540;-65
2022/06/15 06:36:36;;;;;;;;;10.50;8.25;;;;;;;;4972898;28;45483;-65
2022/06/15 06:39:04;;;;;;;;;10.50;7.25;;;;;;;;4969879;28;45564;-66
2022/06/15 06:41:30;;;;;;;;;12.25;10.00;;;;;;;;4972846;28;45565;-64
2022/06/15 06:43:56;;;;;;;;;11.25;10.00;;;;;;;;4971611;28;45466;-66
2022/06/15 06:46:21;;;;;;;;;7.25;7.25;;;;;;;;4973189;28;45398;-65
2022/06/15 06:48:47;;;;;;;;;9.50;7.75;;;;;;;;5004515;28;45628;-66
2022/06/15 06:51:12;;;;;;;;;11.75;9.50;;;;;;;;5004291;28;47799;-66
2022/06/15 06:53:37;;;;;;;;;12.50;11.00;;;;;;;;5004447;28;45597;-66
2022/06/15 06:56:04;;;;;;;;;8.25;8.00;;;;;;;;4973459;28;45818;-67
2022/06/15 06:58:29;;;;;;;;;9.00;9.00;;;;;;;;4973010;28;45517;-67
2022/06/15 07:00:54;;;;;;;;;9.50;8.50;;;;;;;;4973065;28;46462;-66
2022/06/15 07:03:20;;;;;;;;;9.25;6.75;;;;;;;;4972648;28;45426;-66
2022/06/15 07:05:45;;;;;;;;;10.50;9.25;;;;;;;;4973070;28;45660;-67
2022/06/15 07:08:12;;;;;;;;;11.50;10.25;;;;;;;;4972910;28;45525;-65
2022/06/15 07:10:37;;;;;;;;;13.50;10.75;;;;;;;;4972851;28;45718;-65
2022/06/15 07:13:02;;;;;;;;;11.25;11.25;;;;;;;;4973019;28;45629;-66
2022/06/15 07:15:28;;;;;;;;;7.50;7.50;;;;;;;;4972802;28;45418;-65
2022/06/15 07:17:56;;;;;;;;;11.00;10.75;;;;;;;;5004317;28;45565;-67
2022/06/15 07:20:21;;;;;;;;;8.00;8.00;;;;;;;;4972606;28;45530;-66
2022/06/15 07:22:47;;;;;;;;;5.25;3.75;;;;;;;;4971099;28;46072;-66
2022/06/15 07:25:12;;;;;;;;;7.50;7.00;;;;;;;;4972373;28;45486;-66
2022/06/15 07:27:38;;;;;;;;;12.50;9.50;;;;;;;;4972875;28;45454;-66
2022/06/15 07:30:04;;;;;;;;;10.00;7.00;;;;;;;;5004440;28;47610;-66
2022/06/15 07:32:30;;;;;;;;;12.75;11.75;;;;;;;;4972539;28;45544;-65
2022/06/15 07:34:56;;;;;;;;;11.25;10.00;;;;;;;;4972367;28;45843;-66
2022/06/15 07:37:21;;;;;;;;;12.50;9.75;;;;;;;;4972467;28;45542;-67
2022/06/15 07:39:46;;;;;;;;;9.50;9.50;;;;;;;;4972638;28;46168;-66
2022/06/15 07:42:11;;;;;;;;;7.00;7.00;;;;;;;;4972609;28;45699;-66
2022/06/15 07:44:38;;;;;;;;;8.00;8.00;;;;;;;;4971097;28;47218;-66
2022/06/15 07:49:54;;;;;;;;;7.25;7.25;;;;;;;;4972010;28;45541;-66
2022/06/15 07:52:20;;;;;;;;;7.25;5.75;;;;;;;;4972593;28;45905;-67
2022/06/15 07:54:45;;;;;;;;;6.50;6.50;;;;;;;;5004153;28;45635;-66
2022/06/15 07:57:10;;;;;;;;;7.00;7.00;;;;;;;;4972399;28;45406;-66
2022/06/15 07:59:35;;;;;;;;;8.25;6.50;;;;;;;;4971939;28;45986;-65
2022/06/15 08:02:01;;;;;;;;;6.75;6.75;;;;;;;;5003596;28;45455;-66
2022/06/15 08:04:26;;;;;;;;;6.75;6.75;;;;;;;;4972263;28;45450;-66
2022/06/15 08:06:51;;;;;;;;;7.50;7.50;;;;;;;;4972553;28;45355;-66
2022/06/15 08:09:17;;;;;;;;;6.00;6.00;;;;;;;;5003579;28;48173;-65
2022/06/15 08:12:18;;;;;;;;;7.00;7.00;;;;;;;;4971845;28;45541;-65
2022/06/15 08:14:36;;;;;;;;;5.25;5.25;;;;;;;;4969698;28;45632;-66
2022/06/15 08:17:01;;;;;;;;;6.00;6.00;;;;;;;;4972001;28;45421;-67
2022/06/15 08:19:28;;;;;;;;;5.00;5.00;;;;;;;;4972117;28;47800;-65
2022/06/15 08:21:53;;;;;;;;;7.00;7.00;;;;;;;;4987448;28;45893;-65
2022/06/15 08:24:21;;;;;;;;;6.25;6.25;;;;;;;;4972048;28;45848;-66
2022/06/15 08:26:47;;;;;;;;;7.00;7.00;;;;;;;;4971761;28;45529;-66
2022/06/15 08:29:13;;;;;;;;;5.25;5.25;;;;;;;;4971495;28;45718;-65
2022/06/15 08:31:39;;;;;;;;;6.50;6.50;;;;;;;;4971280;28;45391;-65
2022/06/15 08:34:05;;;;;;;;;6.25;5.50;;;;;;;;4971849;28;45979;-65
2022/06/15 08:36:31;;;;;;;;;5.50;4.75;;;;;;;;4971330;28;45442;-66
2022/06/15 08:38:56;;;;;;;;;7.25;5.75;;;;;;;;4970858;28;46160;-66
2022/06/15 08:41:40;;;;;;;;;8.00;5.50;;;;;;;;4968099;28;46108;-67
2022/06/15 08:44:24;;;;;;;;;5.25;5.25;;;;;;;;4971708;28;46134;-64
2022/06/15 08:46:58;;;;;;;;;5.50;5.00;;;;;;;;4971465;28;45539;-66
2022/06/15 08:49:29;;;;;;;;;6.00;6.00;;;;;;;;4971350;28;46963;-66
2022/06/15 08:51:59;;;;;;;;;7.00;7.00;;;;;;;;4970570;28;45553;-65
2022/06/15 08:54:29;;;;;;;;;7.75;6.75;;;;;;;;4970277;28;45933;-66
2022/06/15 08:57:11;;;;;;;;;6.00;6.00;;;;;;;;4970502;28;45407;-67
2022/06/15 08:59:42;;;;;;;;;6.00;6.00;;;;;;;;4970258;28;45624;-67
2022/06/15 09:02:16;;;;;;;;;5.00;5.00;;;;;;;;4969751;28;45565;-66
2022/06/15 09:04:50;;;;;;;;;6.00;5.00;;;;;;;;4985702;28;45805;-65
2022/06/15 09:07:25;;;;;;;;;6.75;6.75;;;;;;;;4969641;28;45486;-65
2022/06/15 09:09:56;;;;;;;;;5.50;5.50;;;;;;;;4971366;28;45798;-66
2022/06/15 09:13:03;;;;;;;;;6.00;6.00;;;;;;;;4970974;28;45456;-67
2022/06/15 09:15:33;;;;;;;;;7.00;6.75;;;;;;;;4971762;28;45590;-66
2022/06/15 09:18:02;;;;;;;;;4.00;4.00;;;;;;;;5002516;28;45430;-65
2022/06/15 09:20:32;;;;;;;;;4.00;4.00;;;;;;;;4969109;28;46492;-66
2022/06/15 09:23:04;;;;;;;;;5.00;5.00;;;;;;;;4968999;28;46417;-66
2022/06/15 09:25:36;;;;;;;;;5.75;5.75;;;;;;;;4970798;28;45870;-65
2022/06/15 09:28:25;;;;;;;;;6.00;6.00;;;;;;;;4971460;28;45917;-66
2022/06/15 09:30:50;;;;;;;;;5.00;5.00;;;;;;;;4969348;28;48950;-65
2022/06/15 09:33:29;;;;;;;;;9.50;6.50;;;;;;;;5001950;28;46162;-65
2022/06/15 09:36:02;;;;;;;;;6.25;4.00;;;;;;;;5002479;28;45625;-66
2022/06/15 09:38:29;;;;;;;;;5.00;5.00;;;;;;;;4969459;28;45503;-66
2022/06/15 09:40:57;;;;;;;;;6.00;6.00;;;;;;;;4970762;28;46662;-66
2022/06/15 09:43:22;;;;;;;;;6.00;6.00;;;;;;;;4970410;28;45451;-67
2022/06/15 09:46:02;;;;;;;;;8.00;6.00;;;;;;;;4971036;28;45515;-65
2022/06/15 09:48:30;;;;;;;;;5.75;5.75;;;;;;;;4970325;28;45458;-66
2022/06/15 09:50:58;;;;;;;;;6.00;6.00;;;;;;;;4969977;28;46549;-66
2022/06/15 09:53:42;;;;;;;;;5.50;5.50;;;;;;;;4970077;28;45607;-65
2022/06/15 09:56:10;;;;;;;;;9.00;8.00;;;;;;;;4970864;28;45556;-67
2022/06/15 09:58:39;;;;;;;;;6.25;6.25;;;;;;;;4971018;28;45360;-66
2022/06/15 10:01:06;;;;;;;;;6.50;5.50;;;;;;;;4986330;28;48506;-66
2022/06/15 10:03:33;;;;;;;;;5.25;5.25;;;;;;;;4970641;28;45673;-66
2022/06/15 10:06:15;;;;;;;;;4.50;4.50;;;;;;;;4970701;28;45456;-66
2022/06/15 10:08:40;;;;;;;;;7.00;6.25;;;;;;;;4970888;28;45609;-65
2022/06/15 10:11:11;;;;;;;;;3.50;3.00;;;;;;;;4970884;28;45664;-65
2022/06/15 10:13:38;;;;;;;;;4.75;4.75;;;;;;;;4972920;28;45462;-67
2022/06/15 10:16:15;;;;;;;;;6.00;6.00;;;;;;;;4974630;28;45742;-66
2022/06/15 10:18:48;;;;;;;;;6.25;5.25;;;;;;;;4973656;28;45625;-66
2022/06/15 10:21:13;;;;;;;;;4.00;4.00;;;;;;;;4973253;28;46760;-65
2022/06/15 10:23:38;;;;;;;;;7.25;4.25;;;;;;;;5004943;28;45593;-65
2022/06/15 10:26:03;;;;;;;;;5.50;5.50;;;;;;;;4974281;28;45547;-65
2022/06/15 10:28:35;;;;;;;;;8.00;6.50;;;;;;;;4972637;28;45379;-66
2022/06/15 10:31:04;;;;;;;;;5.00;5.00;;;;;;;;4989359;28;47769;-67
2022/06/15 10:33:41;;;;;;;;;4.00;4.00;;;;;;;;4973453;28;45439;-66
2022/06/15 10:36:30;;;;;;;;;7.50;7.25;;;;;;;;4973620;28;45688;-66
2022/06/15 10:39:01;;;;;;;;;4.00;4.00;;;;;;;;4975551;28;46086;-66
2022/06/15 10:41:47;;;;;;;;;4.50;4.50;;;;;;;;4973370;28;47472;-66
2022/06/15 10:44:24;;;;;;;;;5.00;5.00;;;;;;;;4972107;28;45471;-66
2022/06/15 10:46:52;;;;;;;;;5.25;5.25;;;;;;;;4973767;28;45476;-65
2022/06/15 10:49:17;;;;;;;;;7.25;6.00;;;;;;;;4973609;28;45467;-66
2022/06/15 10:51:44;;;;;;;;;6.00;4.75;;;;;;;;4973118;28;46363;-67
2022/06/15 10:54:20;;;;;;;;;4.00;4.00;;;;;;;;4973100;28;45585;-66
2022/06/15 11:02:33;;;;;;;;;6.00;5.50;;;;;;;;4972931;28;45736;-66
2022/06/15 11:05:04;;;;;;;;;5.75;5.75;;;;;;;;4971536;28;45456;-67
2022/06/15 11:07:32;;;;;;;;;5.00;5.00;;;;;;;;4972735;28;45408;-66
2022/06/15 11:09:58;;;;;;;;;6.00;5.00;;;;;;;;4973042;28;45386;-67
2022/06/15 11:12:31;;;;;;;;;8.00;5.75;;;;;;;;4972351;28;46084;-67
2022/06/15 11:15:21;;;;;;;;;7.50;7.00;;;;;;;;4972273;28;45775;-66
2022/06/15 11:18:02;;;;;;;;;5.00;5.00;;;;;;;;4972920;28;45600;-66
2022/06/15 11:20:35;;;;;;;;;5.25;4.75;;;;;;;;4972692;28;46281;-66
2022/06/15 11:23:04;;;;;;;;;7.25;7.00;;;;;;;;4971112;28;49601;-66
2022/06/15 11:25:34;;;;;;;;;5.00;5.00;;;;;;;;4971436;28;45482;-66
2022/06/15 11:28:02;;;;;;;;;5.25;5.25;;;;;;;;4973343;28;45499;-66
2022/06/15 11:30:35;;;;;;;;;3.50;3.50;;;;;;;;5004501;28;45601;-66
2022/06/15 11:33:00;;;;;;;;;9.25;8.00;;;;;;;;5003972;28;47421;-65
2022/06/15 11:35:25;;;;;;;;;8.00;8.00;;;;;;;;5004043;28;45358;-67
2022/06/15 11:37:59;;;;;;;;;7.00;7.00;;;;;;;;4972984;28;45529;-65
2022/06/15 11:40:43;;;;;;;;;7.75;7.75;;;;;;;;4972978;28;45498;-67
2022/06/15 11:43:14;;;;;;;;;7.25;7.00;;;;;;;;4972859;28;45931;-67
2022/06/15 11:45:49;;;;;;;;;12.00;7.75;;;;;;;;4972188;28;45781;-66
2022/06/15 11:48:22;;;;;;;;;6.50;6.00;;;;;;;;5003919;28;45706;-67
2022/06/15 11:50:54;;;;;;;;;8.75;7.00;;;;;;;;4970968;28;45522;-67
2022/06/15 11:53:21;;;;;;;;;8.25;8.25;;;;;;;;4972021;28;45492;-67
2022/06/15 11:55:52;;;;;;;;;9.50;9.50;;;;;;;;4972391;28;45559;-66
2022/06/15 11:58:27;;;;;;;;;8.25;7.25;;;;;;;;4987736;28;45615;-67
2022/06/15 12:00:55;;;;;;;;;6.00;6.00;;;;;;;;4973029;28;45875;-68
2022/06/15 12:03:23;;;;;;;;;7.00;7.00;;;;;;;;5003608;28;47874;-66
2022/06/15 12:05:48;;;;;;;;;7.25;7.00;;;;;;;;4972256;28;45442;-67
2022/06/15 12:08:32;;;;;;;;;7.00;7.00;;;;;;;;4972508;28;45410;-66
2022/06/15 12:14:12;;;;;;;;;7.00;7.00;;;;;;;;4972139;28;45558;-67
2022/06/15 12:16:50;;;;;;;;;9.75;9.75;;;;;;;;4970578;28;45428;-66
2022/06/15 12:19:25;;;;;;;;;7.25;7.25;;;;;;;;4973112;28;45609;-67
2022/06/15 12:21:53;;;;;;;;;8.75;8.50;;;;;;;;5004014;28;45549;-66
2022/06/15 12:24:19;;;;;;;;;10.50;9.50;;;;;;;;4971667;28;45622;-66
2022/06/15 12:27:04;;;;;;;;;8.25;8.25;;;;;;;;4971834;28;45553;-64
2022/06/15 12:29:35;;;;;;;;;7.75;7.00;;;;;;;;4969686;28;45509;-67
2022/06/15 12:32:35;;;;;;;;;8.00;8.00;;;;;;;;4972027;28;45444;-66
2022/06/15 12:35:18;;;;;;;;;7.50;7.50;;;;;;;;4957601;28;47407;-66
2022/06/15 12:37:48;;;;;;;;;8.50;7.00;;;;;;;;4986568;28;45548;-66
2022/06/15 12:40:19;;;;;;;;;10.00;9.25;;;;;;;;4972668;28;45498;-66
2022/06/15 12:42:47;;;;;;;;;7.50;7.50;;;;;;;;4972546;28;45662;-65
2022/06/15 12:45:12;;;;;;;;;6.25;6.25;;;;;;;;4971160;28;46725;-68
2022/06/15 12:47:39;;;;;;;;;9.00;8.00;;;;;;;;4971684;28;45501;-65
2022/06/15 12:50:04;;;;;;;;;5.00;5.00;;;;;;;;4972182;28;45422;-68
2022/06/15 12:52:41;;;;;;;;;8.25;8.25;;;;;;;;4971977;28;45577;-67
2022/06/15 12:55:17;;;;;;;;;9.75;9.75;;;;;;;;4987890;28;46637;-67
2022/06/15 12:57:45;;;;;;;;;9.00;8.00;;;;;;;;4971960;28;45407;-65
2022/06/15 13:00:31;;;;;;;;;7.00;7.00;;;;;;;;4971994;28;46112;-67
2022/06/15 13:02:56;;;;;;;;;9.50;8.50;;;;;;;;4969138;28;45851;-67
2022/06/15 13:05:32;;;;;;;;;8.75;6.75;;;;;;;;4971707;28;46092;-68
2022/06/15 13:08:09;;;;;;;;;7.25;7.25;;;;;;;;4971937;28;45511;-65
2022/06/15 13:10:35;;;;;;;;;7.50;7.00;;;;;;;;4971747;28;47117;-67
2022/06/15 13:13:02;;;;;;;;;7.75;7.00;;;;;;;;4971921;28;45761;-67
2022/06/15 13:15:29;;;;;;;;;7.50;7.50;;;;;;;;4970055;28;47699;-67
2022/06/15 13:18:16;;;;;;;;;6.50;6.00;;;;;;;;4969702;28;45505;-65
2022/06/15 13:20:46;;;;;;;;;6.75;6.75;;;;;;;;4971379;28;45467;-66
2022/06/15 13:23:17;;;;;;;;;6.00;5.50;;;;;;;;4971507;28;45534;-67
2022/06/15 13:25:49;;;;;;;;;7.00;6.50;;;;;;;;4971469;28;46717;-65
2022/06/15 13:28:15;;;;;;;;;4.75;4.75;;;;;;;;4972043;28;45494;-66
2022/06/15 13:30:51;;;;;;;;;7.00;5.50;;;;;;;;4971126;28;45663;-67
2022/06/15 13:33:16;;;;;;;;;7.00;7.00;;;;;;;;4969514;28;45731;-67
2022/06/15 13:35:44;;;;;;;;;6.00;5.50;;;;;;;;4970909;28;45573;-66
2022/06/15 13:38:16;;;;;;;;;7.25;7.25;;;;;;;;4971329;28;45718;-67
2022/06/15 13:40:53;;;;;;;;;3.50;3.50;;;;;;;;4970179;28;45946;-65
2022/06/15 13:43:19;;;;;;;;;6.75;6.75;;;;;;;;4970599;28;45873;-66
2022/06/15 13:45:44;;;;;;;;;8.50;7.00;;;;;;;;5003062;28;46728;-67
2022/06/15 13:48:13;;;;;;;;;8.25;7.00;;;;;;;;5005325;28;45591;-65
2022/06/15 13:50:48;;;;;;;;;8.00;8.00;;;;;;;;4973246;28;45664;-66
2022/06/15 13:53:16;;;;;;;;;6.25;6.25;;;;;;;;4974586;28;45443;-66
2022/06/15 13:55:41;;;;;;;;;7.00;6.00;;;;;;;;4974197;28;45677;-66
2022/06/15 13:58:24;;;;;;;;;6.25;6.25;;;;;;;;4974753;28;45418;-67
2022/06/15 14:00:53;;;;;;;;;8.00;7.00;;;;;;;;4988967;28;45372;-67
2022/06/15 14:03:18;;;;;;;;;6.00;6.00;;;;;;;;4974341;28;46546;-68
2022/06/15 14:05:43;;;;;;;;;5.00;5.00;;;;;;;;4973913;28;46722;-66
2022/06/15 14:08:19;;;;;;;;;5.25;5.25;;;;;;;;4974383;28;45452;-68
2022/06/15 14:10:48;;;;;;;;;7.75;7.75;;;;;;;;5006013;28;45553;-66
2022/06/15 14:13:24;;;;;;;;;6.50;6.50;;;;;;;;4989618;28;45521;-67
2022/06/15 14:16:06;;;;;;;;;5.75;5.75;;;;;;;;5004814;28;47513;-67
2022/06/15 14:18:35;;;;;;;;;5.25;5.25;;;;;;;;5004703;28;45577;-67
2022/06/15 14:21:29;;;;;;;;;6.50;6.50;;;;;;;;4973214;28;45562;-67
2022/06/15 14:23:56;;;;;;;;;7.00;7.00;;;;;;;;4994593;28;45993;-67
2022/06/15 14:26:23;;;;;;;;;6.50;6.50;;;;;;;;4973537;28;46454;-67
2022/06/15 14:28:50;;;;;;;;;6.00;6.00;;;;;;;;5005063;28;46002;-66
2022/06/15 14:31:17;;;;;;;;;6.75;6.75;;;;;;;;4972652;28;45862;-67
2022/06/15 14:33:43;;;;;;;;;6.75;6.75;;;;;;;;4973257;28;45520;-66
2022/06/15 14:36:14;;;;;;;;;6.75;6.00;;;;;;;;4972617;28;45529;-66
2022/06/15 14:38:43;;;;;;;;;6.50;5.25;;;;;;;;4972707;28;45470;-67
2022/06/15 14:41:10;;;;;;;;;4.25;4.25;;;;;;;;4970811;28;45560;-67
2022/06/15 14:43:35;;;;;;;;;5.75;5.00;;;;;;;;4973152;28;45421;-67
2022/06/15 14:46:01;;;;;;;;;5.75;5.75;;;;;;;;5005317;28;46582;-67
2022/06/15 14:48:28;;;;;;;;;6.00;6.00;;;;;;;;4973193;28;45406;-68
2022/06/15 14:51:12;;;;;;;;;5.00;5.00;;;;;;;;4971712;28;45665;-68
2022/06/15 14:53:39;;;;;;;;;7.25;6.00;;;;;;;;4970361;28;46005;-67
2022/06/15 14:56:05;;;;;;;;;6.00;6.00;;;;;;;;4971720;28;47565;-67
2022/06/15 14:58:30;;;;;;;;;7.25;7.25;;;;;;;;4972278;28;45486;-67
2022/06/15 15:01:14;;;;;;;;;5.50;5.50;;;;;;;;4988407;28;45435;-68
2022/06/15 15:03:41;;;;;;;;;7.25;7.25;;;;;;;;4972419;28;45532;-66
2022/06/15 15:06:11;;;;;;;;;6.00;6.00;;;;;;;;4972623;28;45629;-67
2022/06/15 15:08:40;;;;;;;;;7.25;6.50;;;;;;;;4972345;28;45561;-66